createdAt,value
2017-12-12T00:00:42.137Z,13.70
2017-12-12T00:03:08.833Z,13.60
2017-12-12T00:05:35.527Z,13.60
2017-12-12T00:08:02.221Z,13.60
2017-12-12T00:10:28.870Z,13.50
2017-12-12T00:12:55.566Z,13.40
2017-12-12T00:15:22.229Z,13.40
2017-12-12T00:17:49.630Z,13.30
2017-12-12T00:20:16.302Z,13.30
2017-12-12T00:22:42.974Z,13.30
2017-12-12T00:25:10.408Z,13.00
2017-12-12T00:27:37.075Z,13.00
2017-12-12T00:30:04.514Z,13.00
2017-12-12T00:32:31.178Z,12.90
2017-12-12T00:34:58.579Z,12.90
2017-12-12T00:37:25.252Z,12.90
2017-12-12T00:39:51.907Z,12.90
2017-12-12T00:42:18.536Z,12.80
2017-12-12T00:44:45.183Z,12.80
2017-12-12T00:47:11.810Z,12.80
2017-12-12T00:49:38.473Z,12.70
2017-12-12T00:52:05.129Z,12.60
2017-12-12T00:54:32.546Z,12.40
2017-12-12T00:56:59.240Z,12.40
2017-12-12T00:59:26.617Z,12.10
2017-12-12T01:01:53.305Z,12.10
2017-12-12T01:04:20.702Z,11.80
2017-12-12T01:06:48.099Z,11.70
2017-12-12T01:09:14.801Z,11.70
2017-12-12T01:11:42.195Z,11.70
2017-12-12T01:14:08.836Z,11.60
2017-12-12T01:16:35.510Z,11.50
2017-12-12T01:19:02.214Z,11.50
2017-12-12T01:21:28.860Z,11.30
2017-12-12T01:23:55.566Z,11.10
2017-12-12T01:26:22.950Z,10.80
2017-12-12T01:28:49.577Z,10.80
2017-12-12T01:31:17.070Z,10.60
2017-12-12T01:33:43.747Z,10.60
2017-12-12T01:36:10.394Z,10.50
2017-12-12T01:38:37.117Z,10.40
2017-12-12T01:41:03.841Z,10.30
2017-12-12T01:43:30.571Z,10.10
2017-12-12T01:45:57.310Z,10.00
2017-12-12T01:48:24.022Z,9.90
2017-12-12T01:50:50.794Z,9.80
2017-12-12T01:53:18.283Z,9.50
2017-12-12T01:55:45.120Z,9.50
2017-12-12T01:58:11.869Z,9.50
2017-12-12T02:00:38.614Z,9.40
2017-12-12T02:03:05.317Z,9.30
2017-12-12T02:05:32.245Z,9.20
2017-12-12T02:07:58.995Z,9.20
2017-12-12T02:10:25.767Z,9.00
2017-12-12T02:12:53.286Z,8.80
2017-12-12T02:15:20.017Z,8.80
2017-12-12T02:17:46.734Z,8.80
2017-12-12T02:20:13.476Z,8.80
2017-12-12T02:22:40.282Z,8.70
2017-12-12T02:25:07.055Z,8.60
2017-12-12T02:27:34.481Z,8.50
2017-12-12T02:30:01.210Z,8.40
2017-12-12T02:32:27.974Z,8.40
2017-12-12T02:34:54.728Z,8.30
2017-12-12T02:37:21.487Z,8.30
2017-12-12T02:39:48.967Z,8.30
2017-12-12T02:42:15.695Z,8.30
2017-12-12T02:44:42.509Z,8.20
2017-12-12T02:47:09.243Z,8.20
2017-12-12T02:49:36.018Z,8.10
2017-12-12T02:52:02.779Z,8.10
2017-12-12T02:54:29.526Z,8.10
2017-12-12T02:56:57.009Z,8.00
2017-12-12T02:59:23.760Z,8.00
2017-12-12T03:01:50.486Z,7.90
2017-12-12T03:04:17.205Z,7.90
2017-12-12T03:06:44.685Z,7.90
2017-12-12T03:09:11.459Z,7.80
2017-12-12T03:11:38.184Z,7.90
2017-12-12T03:14:05.018Z,7.90
2017-12-12T03:16:31.777Z,7.80
2017-12-12T03:18:58.507Z,7.70
2017-12-12T03:21:25.270Z,7.70
2017-12-12T03:23:52.002Z,7.70
2017-12-12T03:26:18.740Z,7.70
2017-12-12T03:28:45.512Z,7.70
2017-12-12T03:31:12.284Z,7.70
2017-12-12T03:33:39.078Z,7.80
2017-12-12T03:36:05.801Z,7.80
2017-12-12T03:38:33.332Z,7.80
2017-12-12T03:41:00.087Z,7.80
2017-12-12T03:43:26.857Z,7.80
2017-12-12T03:45:54.341Z,7.80
2017-12-12T03:48:21.099Z,7.80
2017-12-12T03:50:47.816Z,7.70
2017-12-12T03:53:14.535Z,7.60
2017-12-12T03:55:41.272Z,7.60
2017-12-12T03:58:08.019Z,7.90
2017-12-12T04:00:34.750Z,7.90
2017-12-12T04:03:01.468Z,7.90
2017-12-12T04:05:28.181Z,8.00
2017-12-12T04:07:55.613Z,8.10
2017-12-12T04:10:22.424Z,8.10
2017-12-12T04:12:49.199Z,8.50
2017-12-12T04:15:15.929Z,8.60
2017-12-12T04:17:42.657Z,8.80
2017-12-12T04:20:09.378Z,8.90
2017-12-12T04:22:36.095Z,9.00
2017-12-12T04:25:03.533Z,9.10
2017-12-12T04:27:30.274Z,9.00
2017-12-12T04:29:57.006Z,9.00
2017-12-12T04:32:23.761Z,9.10
2017-12-12T04:34:51.304Z,9.00
2017-12-12T04:37:18.937Z,9.00
2017-12-12T04:39:45.680Z,8.80
2017-12-12T04:42:13.178Z,8.70
2017-12-12T04:44:39.872Z,8.70
2017-12-12T04:47:07.341Z,8.70
2017-12-12T04:49:34.831Z,8.60
2017-12-12T04:52:01.583Z,8.50
2017-12-12T04:54:28.329Z,8.60
2017-12-12T04:56:55.109Z,8.80
2017-12-12T04:59:21.870Z,8.80
2017-12-12T05:01:49.372Z,8.70
2017-12-12T05:04:16.122Z,8.70
2017-12-12T05:06:42.812Z,8.70
2017-12-12T05:09:10.305Z,8.80
2017-12-12T05:11:37.079Z,8.80
2017-12-12T05:14:03.822Z,8.80
2017-12-12T05:16:30.545Z,8.80
2017-12-12T05:18:57.290Z,8.90
2017-12-12T05:21:24.020Z,9.20
2017-12-12T05:23:50.773Z,9.70
2017-12-12T05:26:17.520Z,10.10
2017-12-12T05:28:44.249Z,10.50
2017-12-12T05:31:10.991Z,10.80
2017-12-12T05:33:38.505Z,11.40
2017-12-12T05:36:05.288Z,11.30
2017-12-12T05:38:33.662Z,11.70
2017-12-12T05:41:00.359Z,11.70
2017-12-12T05:43:27.065Z,11.80
2017-12-12T05:45:54.554Z,11.20
2017-12-12T05:48:21.300Z,11.20
2017-12-12T05:50:48.076Z,10.80
2017-12-12T05:53:14.856Z,10.40
2017-12-12T05:55:42.290Z,9.90
2017-12-12T05:58:09.990Z,9.80
2017-12-12T06:00:37.525Z,9.30
2017-12-12T06:03:04.302Z,9.30
2017-12-12T06:05:31.037Z,9.20
2017-12-12T06:07:58.547Z,9.20
2017-12-12T06:10:25.338Z,9.20
2017-12-12T06:12:52.849Z,9.40
2017-12-12T06:15:19.588Z,9.40
2017-12-12T06:17:46.323Z,9.40
2017-12-12T06:20:13.077Z,9.40
2017-12-12T06:22:39.830Z,9.30
2017-12-12T06:25:06.572Z,9.20
2017-12-12T06:27:33.293Z,9.20
2017-12-12T06:30:00.039Z,9.10
2017-12-12T06:32:26.743Z,9.10
2017-12-12T06:34:53.503Z,9.20
2017-12-12T06:37:20.246Z,9.10
2017-12-12T06:39:46.937Z,9.10
2017-12-12T06:42:13.901Z,9.10
2017-12-12T06:44:40.669Z,9.00
2017-12-12T06:47:07.374Z,9.00
2017-12-12T06:49:34.106Z,9.00
2017-12-12T06:52:00.872Z,9.10
2017-12-12T06:54:27.626Z,9.20
2017-12-12T06:56:54.378Z,9.20
2017-12-12T06:59:21.118Z,9.20
2017-12-12T07:01:47.870Z,9.30
2017-12-12T07:04:14.601Z,9.40
2017-12-12T07:06:41.317Z,9.40
2017-12-12T07:09:08.059Z,9.30
2017-12-12T07:11:34.837Z,9.40
2017-12-12T07:14:01.593Z,9.40
2017-12-12T07:16:28.338Z,9.50
2017-12-12T07:18:55.096Z,9.60
2017-12-12T07:21:22.590Z,9.90
2017-12-12T07:23:49.288Z,9.90
2017-12-12T07:26:15.973Z,9.90
2017-12-12T07:28:42.677Z,10.00
2017-12-12T07:31:09.386Z,10.10
2017-12-12T07:33:37.802Z,10.20
2017-12-12T07:36:04.512Z,10.20
2017-12-12T07:38:31.267Z,10.10
2017-12-12T07:40:57.942Z,10.30
2017-12-12T07:43:24.594Z,10.40
2017-12-12T07:45:52.111Z,10.30
2017-12-12T07:48:18.822Z,10.20
2017-12-12T07:50:45.512Z,10.30
2017-12-12T07:53:12.230Z,10.20
2017-12-12T07:55:38.955Z,10.30
2017-12-12T07:58:05.694Z,10.40
2017-12-12T08:00:32.445Z,10.50
2017-12-12T08:02:59.146Z,10.80
2017-12-12T08:05:25.869Z,10.90
2017-12-12T08:07:52.620Z,11.00
2017-12-12T08:10:19.345Z,11.20
2017-12-12T08:12:46.032Z,11.20
2017-12-12T08:15:12.734Z,11.10
2017-12-12T08:17:39.424Z,11.10
2017-12-12T08:20:06.835Z,11.30
2017-12-12T08:22:33.517Z,11.30
2017-12-12T08:25:00.194Z,11.40
2017-12-12T08:27:26.839Z,11.50
2017-12-12T08:29:53.530Z,11.60
2017-12-12T08:32:20.277Z,11.70
2017-12-12T08:34:46.984Z,11.70
2017-12-12T08:37:13.922Z,11.80
2017-12-12T08:39:40.625Z,12.00
2017-12-12T08:42:08.090Z,12.20
2017-12-12T08:44:35.522Z,12.30
2017-12-12T08:47:02.192Z,12.30
2017-12-12T08:49:28.914Z,12.40
2017-12-12T08:51:55.745Z,12.50
2017-12-12T08:54:22.457Z,12.50
2017-12-12T08:56:49.156Z,12.50
2017-12-12T08:59:16.043Z,12.50
2017-12-12T09:01:42.896Z,12.60
2017-12-12T09:04:10.516Z,12.70
2017-12-12T09:06:37.196Z,12.90
2017-12-12T09:09:04.729Z,13.40
2017-12-12T09:11:31.398Z,13.40
2017-12-12T09:13:58.921Z,13.50
2017-12-12T09:16:25.637Z,13.40
2017-12-12T09:18:52.291Z,13.50
2017-12-12T09:21:19.045Z,13.50
2017-12-12T09:23:45.741Z,13.50
2017-12-12T09:26:12.637Z,13.40
2017-12-12T09:28:39.307Z,13.40
2017-12-12T09:31:05.970Z,13.50
2017-12-12T09:33:33.401Z,13.80
2017-12-12T09:36:00.067Z,13.80
2017-12-12T09:38:27.507Z,14.30
2017-12-12T09:40:54.260Z,14.30
2017-12-12T09:43:22.611Z,14.50
2017-12-12T09:45:49.336Z,14.40
2017-12-12T09:48:16.228Z,14.40
2017-12-12T09:50:42.934Z,14.40
2017-12-12T09:53:09.648Z,14.40
2017-12-12T09:55:36.326Z,14.40
2017-12-12T09:58:03.034Z,14.90
2017-12-12T10:00:29.807Z,15.20
2017-12-12T10:02:56.510Z,15.30
2017-12-12T10:05:23.996Z,15.40
2017-12-12T10:07:50.681Z,15.40
2017-12-12T10:10:17.392Z,15.40
2017-12-12T10:12:44.116Z,15.40
2017-12-12T10:15:10.872Z,15.30
2017-12-12T10:17:37.591Z,15.20
2017-12-12T10:20:05.007Z,14.70
2017-12-12T10:22:31.709Z,14.70
2017-12-12T10:24:58.367Z,14.60
2017-12-12T10:27:25.053Z,14.50
2017-12-12T10:29:51.849Z,14.50
2017-12-12T10:32:18.529Z,14.60
2017-12-12T10:34:45.202Z,14.70
2017-12-12T10:37:12.719Z,15.60
2017-12-12T10:39:39.477Z,15.50
2017-12-12T10:42:06.209Z,16.30
2017-12-12T10:44:32.949Z,16.90
2017-12-12T10:46:59.745Z,17.50
2017-12-12T10:49:27.270Z,18.00
2017-12-12T10:51:53.987Z,17.90
2017-12-12T10:54:20.766Z,17.60
2017-12-12T10:56:47.604Z,17.50
2017-12-12T10:59:14.387Z,17.40
2017-12-12T11:01:41.851Z,17.00
2017-12-12T11:04:09.247Z,16.40
2017-12-12T11:06:35.934Z,16.40
2017-12-12T11:09:02.716Z,16.00
2017-12-12T11:11:29.449Z,15.70
2017-12-12T11:13:56.126Z,15.60
2017-12-12T11:16:22.759Z,15.50
2017-12-12T11:18:50.283Z,15.30
2017-12-12T11:21:17.689Z,14.40
2017-12-12T11:23:44.367Z,14.40
2017-12-12T11:26:11.194Z,14.30
2017-12-12T11:28:37.907Z,14.30
2017-12-12T11:31:04.721Z,14.50
2017-12-12T11:33:32.238Z,15.10
2017-12-12T11:35:59.694Z,15.10
2017-12-12T11:38:26.349Z,15.10
2017-12-12T11:40:53.021Z,14.90
2017-12-12T11:43:19.701Z,14.70
2017-12-12T11:45:46.399Z,14.60
2017-12-12T11:48:13.150Z,14.60
2017-12-12T11:50:39.851Z,14.50
2017-12-12T11:53:06.701Z,14.50
2017-12-12T11:55:33.471Z,14.50
2017-12-12T11:58:00.246Z,14.50
2017-12-12T12:00:27.831Z,14.60
2017-12-12T12:02:54.514Z,14.50
2017-12-12T12:05:21.254Z,14.60
2017-12-12T12:07:47.986Z,14.70
2017-12-12T12:10:14.743Z,14.70
2017-12-12T12:12:41.468Z,14.60
2017-12-12T12:15:08.304Z,14.50
2017-12-12T12:17:35.068Z,14.60
2017-12-12T12:20:01.797Z,14.60
2017-12-12T12:22:29.429Z,14.60
2017-12-12T12:24:56.961Z,14.50
2017-12-12T12:27:23.693Z,14.50
2017-12-12T12:29:50.416Z,14.50
2017-12-12T12:32:17.147Z,14.30
2017-12-12T12:34:43.883Z,14.00
2017-12-12T12:37:10.649Z,13.80
2017-12-12T12:39:37.347Z,13.60
2017-12-12T12:42:04.120Z,13.10
2017-12-12T12:44:30.828Z,12.50
2017-12-12T12:46:57.533Z,11.90
2017-12-12T12:49:24.241Z,11.40
2017-12-12T12:51:51.637Z,10.80
2017-12-12T12:54:18.352Z,10.80
2017-12-12T12:56:45.141Z,10.60
2017-12-12T12:59:12.539Z,10.30
2017-12-12T13:01:39.969Z,10.10
2017-12-12T13:04:06.723Z,10.10
2017-12-12T13:06:33.414Z,10.00
2017-12-12T13:09:00.121Z,9.90
2017-12-12T13:11:27.596Z,9.60
2017-12-12T13:13:55.047Z,9.50
2017-12-12T13:16:22.433Z,9.50
2017-12-12T13:18:49.133Z,9.50
2017-12-12T13:21:15.811Z,9.40
2017-12-12T13:23:42.490Z,9.30
2017-12-12T13:26:09.200Z,9.20
2017-12-12T13:28:35.884Z,9.10
2017-12-12T13:31:02.576Z,9.10
2017-12-12T13:33:30.008Z,8.90
2017-12-12T13:35:56.768Z,8.90
2017-12-12T13:38:24.246Z,8.80
2017-12-12T13:40:51.696Z,8.80
2017-12-12T13:43:19.127Z,8.70
2017-12-12T13:45:45.802Z,8.70
2017-12-12T13:48:13.246Z,8.70
2017-12-12T13:50:40.167Z,8.70
2017-12-12T13:53:06.871Z,8.60
2017-12-12T13:55:33.593Z,8.50
2017-12-12T13:58:01.022Z,8.40
2017-12-12T14:00:27.714Z,8.40
2017-12-12T14:02:54.374Z,8.40
2017-12-12T14:05:21.035Z,8.30
2017-12-12T14:07:47.711Z,8.30
2017-12-12T14:10:14.358Z,8.30
2017-12-12T14:12:41.000Z,8.30
2017-12-12T14:15:08.512Z,8.30
2017-12-12T14:17:35.182Z,8.20
2017-12-12T14:20:01.873Z,8.20
2017-12-12T14:22:28.569Z,8.10
2017-12-12T14:24:55.246Z,8.00
2017-12-12T14:27:22.640Z,7.90
2017-12-12T14:29:49.321Z,7.90
2017-12-12T14:32:15.998Z,7.90
2017-12-12T14:34:42.657Z,7.90
2017-12-12T14:37:09.343Z,7.80
2017-12-12T14:39:36.030Z,7.80
2017-12-12T14:42:03.452Z,7.70
2017-12-12T14:44:30.123Z,7.70
2017-12-12T14:46:57.514Z,7.70
2017-12-12T14:49:24.249Z,7.60
2017-12-12T14:51:50.942Z,7.60
2017-12-12T14:54:17.634Z,7.60
2017-12-12T14:56:44.347Z,7.60
2017-12-12T14:59:11.764Z,7.60
2017-12-12T15:01:38.431Z,7.50
2017-12-12T15:04:05.103Z,7.50
2017-12-12T15:06:32.517Z,7.50
2017-12-12T15:08:59.197Z,7.50
2017-12-12T15:11:26.621Z,7.40
2017-12-12T15:13:53.313Z,7.40
2017-12-12T15:16:20.744Z,7.40
2017-12-12T15:18:47.402Z,7.40
2017-12-12T15:21:14.839Z,7.30
2017-12-12T15:23:41.497Z,7.30
2017-12-12T15:26:08.160Z,7.30
2017-12-12T15:28:35.595Z,7.30
2017-12-12T15:31:02.250Z,7.20
2017-12-12T15:33:29.772Z,7.30
2017-12-12T15:35:56.530Z,7.20
2017-12-12T15:38:23.205Z,7.20
2017-12-12T15:40:51.754Z,7.20
2017-12-12T15:43:18.444Z,7.20
2017-12-12T15:45:45.111Z,7.20
2017-12-12T15:48:11.816Z,7.20
2017-12-12T15:50:39.303Z,7.10
2017-12-12T15:53:06.044Z,7.10
2017-12-12T15:55:32.733Z,7.10
2017-12-12T15:57:59.402Z,7.10
2017-12-12T16:00:26.083Z,7.00
2017-12-12T16:02:52.794Z,7.00
2017-12-12T16:05:19.475Z,7.00
2017-12-12T16:07:46.166Z,7.00
2017-12-12T16:10:12.835Z,7.00
2017-12-12T16:12:40.269Z,7.00
2017-12-12T16:15:06.962Z,6.90
2017-12-12T16:17:33.618Z,6.90
2017-12-12T16:20:00.298Z,6.90
2017-12-12T16:22:26.967Z,6.90
2017-12-12T16:24:53.651Z,6.90
2017-12-12T16:27:20.351Z,6.90
2017-12-12T16:29:47.919Z,6.90
2017-12-12T16:32:14.745Z,6.90
2017-12-12T16:34:41.497Z,6.90
2017-12-12T16:37:08.950Z,6.90
2017-12-12T16:39:36.484Z,6.90
2017-12-12T16:42:03.170Z,6.90
2017-12-12T16:44:30.668Z,6.90
2017-12-12T16:46:57.377Z,6.90
2017-12-12T16:49:24.816Z,6.90
2017-12-12T16:51:51.523Z,6.90
2017-12-12T16:54:18.219Z,6.90
2017-12-12T16:56:45.670Z,7.00
2017-12-12T16:59:12.360Z,7.00
2017-12-12T17:01:39.030Z,7.00
2017-12-12T17:04:05.686Z,6.90
2017-12-12T17:06:33.142Z,6.90
2017-12-12T17:08:59.817Z,6.90
2017-12-12T17:11:27.230Z,6.90
2017-12-12T17:13:53.889Z,6.90
2017-12-12T17:16:20.578Z,6.90
2017-12-12T17:18:47.228Z,6.90
2017-12-12T17:21:13.902Z,6.90
2017-12-12T17:23:40.602Z,7.00
2017-12-12T17:26:08.077Z,7.00
2017-12-12T17:28:34.763Z,7.00
2017-12-12T17:31:01.431Z,7.00
2017-12-12T17:33:28.870Z,6.90
2017-12-12T17:35:55.559Z,6.90
2017-12-12T17:38:22.275Z,6.90
2017-12-12T17:40:49.691Z,6.90
2017-12-12T17:43:16.762Z,6.90
2017-12-12T17:45:43.445Z,6.90
2017-12-12T17:48:10.135Z,7.00
2017-12-12T17:50:36.839Z,7.00
2017-12-12T17:53:04.497Z,7.10
2017-12-12T17:55:31.197Z,7.10
2017-12-12T17:57:58.712Z,7.20
2017-12-12T18:00:26.411Z,7.20
2017-12-12T18:02:53.126Z,7.30
2017-12-12T18:05:20.685Z,7.30
2017-12-12T18:07:47.388Z,7.20
2017-12-12T18:10:14.025Z,7.10
2017-12-12T18:12:40.689Z,7.20
2017-12-12T18:15:08.103Z,7.10
2017-12-12T18:17:34.771Z,7.10
2017-12-12T18:20:01.524Z,7.00
2017-12-12T18:22:28.252Z,7.00
2017-12-12T18:24:54.904Z,7.00
2017-12-12T18:27:21.586Z,6.90
2017-12-12T18:29:48.242Z,6.90
2017-12-12T18:32:14.900Z,6.90
2017-12-12T18:34:41.619Z,6.90
2017-12-12T18:37:08.285Z,6.90
2017-12-12T18:39:34.985Z,6.90
2017-12-12T18:42:02.384Z,6.80
2017-12-12T18:44:29.103Z,6.80
2017-12-12T18:46:55.789Z,6.90
2017-12-12T18:49:22.424Z,6.80
2017-12-12T18:51:49.109Z,6.80
2017-12-12T18:54:16.530Z,6.70
2017-12-12T18:56:43.260Z,6.60
2017-12-12T18:59:10.109Z,6.60
2017-12-12T19:01:37.017Z,6.60
2017-12-12T19:04:04.698Z,6.50
2017-12-12T19:06:31.750Z,6.50
2017-12-12T19:08:58.949Z,6.40
2017-12-12T19:11:26.244Z,6.30
2017-12-12T19:13:54.238Z,6.10
2017-12-12T19:16:21.549Z,6.10
2017-12-12T19:18:48.750Z,6.10
2017-12-12T19:21:15.830Z,6.00
2017-12-12T19:23:42.859Z,6.00
2017-12-12T19:26:09.857Z,6.00
2017-12-12T19:28:36.785Z,5.90
2017-12-12T19:31:04.425Z,5.90
2017-12-12T19:33:31.429Z,5.80
2017-12-12T19:35:58.318Z,5.80
2017-12-12T19:38:25.091Z,5.70
2017-12-12T19:40:51.809Z,5.80
2017-12-12T19:43:18.578Z,5.70
2017-12-12T19:45:45.333Z,5.70
2017-12-12T19:48:12.029Z,5.70
2017-12-12T19:50:38.740Z,5.80
2017-12-12T19:53:05.414Z,5.80
2017-12-12T19:55:32.248Z,5.80
2017-12-12T19:57:59.721Z,5.70
2017-12-12T20:00:27.199Z,5.60
2017-12-12T20:02:53.910Z,5.50
2017-12-12T20:05:21.963Z,5.50
2017-12-12T20:07:48.629Z,5.50
2017-12-12T20:10:16.108Z,5.50
2017-12-12T20:12:42.787Z,5.50
2017-12-12T20:15:09.447Z,5.50
2017-12-12T20:17:36.186Z,5.50
2017-12-12T20:20:02.922Z,5.40
2017-12-12T20:22:30.364Z,5.40
2017-12-12T20:24:57.066Z,5.40
2017-12-12T20:27:24.526Z,5.40
2017-12-12T20:29:51.213Z,5.30
2017-12-12T20:32:17.969Z,5.40
2017-12-12T20:34:44.697Z,5.40
2017-12-12T20:37:11.421Z,5.40
2017-12-12T20:39:38.852Z,5.40
2017-12-12T20:42:05.522Z,5.40
2017-12-12T20:44:32.914Z,5.30
2017-12-12T20:46:59.627Z,5.20
2017-12-12T20:49:27.063Z,5.10
2017-12-12T20:51:53.739Z,5.00
2017-12-12T20:54:20.496Z,5.10
2017-12-12T20:56:47.402Z,5.00
2017-12-12T20:59:14.344Z,5.00
2017-12-12T21:01:41.320Z,5.00
2017-12-12T21:04:08.255Z,5.00
2017-12-12T21:06:35.788Z,5.00
2017-12-12T21:09:02.703Z,5.00
2017-12-12T21:11:29.545Z,4.90
2017-12-12T21:13:56.338Z,4.90
2017-12-12T21:16:23.129Z,4.80
2017-12-12T21:18:49.880Z,4.70
2017-12-12T21:21:16.610Z,4.70
2017-12-12T21:23:43.270Z,4.60
2017-12-12T21:26:09.953Z,4.70
2017-12-12T21:28:36.924Z,4.70
2017-12-12T21:31:04.331Z,4.60
2017-12-12T21:33:31.162Z,4.60
2017-12-12T21:35:57.902Z,4.60
2017-12-12T21:38:24.576Z,4.60
2017-12-12T21:40:51.257Z,4.50
2017-12-12T21:43:17.912Z,4.40
2017-12-12T21:45:45.328Z,4.10
2017-12-12T21:48:12.033Z,4.10
2017-12-12T21:50:38.703Z,4.10
2017-12-12T21:53:05.381Z,4.00
2017-12-12T21:55:32.045Z,4.00
2017-12-12T21:57:59.568Z,3.90
2017-12-12T22:00:26.221Z,3.90
2017-12-12T22:02:52.911Z,3.90
2017-12-12T22:05:19.573Z,3.90
2017-12-12T22:07:46.259Z,3.80
2017-12-12T22:10:12.901Z,3.70
2017-12-12T22:12:39.561Z,3.60
2017-12-12T22:15:06.959Z,3.50
2017-12-12T22:17:33.653Z,3.50
2017-12-12T22:20:00.367Z,3.50
2017-12-12T22:22:27.022Z,3.40
2017-12-12T22:24:53.694Z,3.40
2017-12-12T22:27:21.107Z,3.40
2017-12-12T22:29:47.746Z,3.40
2017-12-12T22:32:14.392Z,3.30
2017-12-12T22:34:41.055Z,3.30
2017-12-12T22:37:07.733Z,3.30
2017-12-12T22:39:35.196Z,3.30
2017-12-12T22:42:01.926Z,3.30
2017-12-12T22:44:29.302Z,3.40
2017-12-12T22:46:55.975Z,3.40
2017-12-12T22:49:22.730Z,3.40
2017-12-12T22:51:49.362Z,3.30
2017-12-12T22:54:16.028Z,3.30
2017-12-12T22:56:43.127Z,3.30
2017-12-12T22:59:09.900Z,3.30
2017-12-12T23:01:36.558Z,3.30
2017-12-12T23:04:03.228Z,3.30
2017-12-12T23:06:29.893Z,3.30
2017-12-12T23:08:57.299Z,3.30
2017-12-12T23:11:24.022Z,3.30
2017-12-12T23:13:50.666Z,3.40
2017-12-12T23:16:17.386Z,3.40
2017-12-12T23:18:44.077Z,3.40
2017-12-12T23:21:10.987Z,3.30
2017-12-12T23:23:37.702Z,3.30
2017-12-12T23:26:05.238Z,3.30
2017-12-12T23:28:31.903Z,3.20
2017-12-12T23:30:59.346Z,3.20
2017-12-12T23:33:26.088Z,3.20
2017-12-12T23:35:52.750Z,3.20
2017-12-12T23:38:19.527Z,3.10
2017-12-12T23:40:46.210Z,3.10
2017-12-12T23:43:12.876Z,3.10
2017-12-12T23:45:39.567Z,3.20
2017-12-12T23:48:06.218Z,3.10
2017-12-12T23:50:32.919Z,3.10
2017-12-12T23:53:00.333Z,3.00
2017-12-12T23:55:26.987Z,3.00
2017-12-12T23:57:53.676Z,2.90
